createdAt,value
2022-08-29T00:01:43.448Z,18.73
2022-08-29T00:02:43.430Z,18.79
2022-08-29T00:04:36.881Z,18.80
2022-08-29T00:05:36.769Z,18.82
2022-08-29T00:07:29.114Z,18.80
2022-08-29T00:08:29.100Z,18.82
2022-08-29T00:10:21.529Z,18.82
2022-08-29T00:11:21.421Z,18.84
2022-08-29T00:13:13.755Z,18.82
2022-08-29T00:14:21.026Z,18.77
2022-08-29T00:16:07.191Z,18.74
2022-08-29T00:17:07.077Z,18.77
2022-08-29T00:18:59.418Z,18.80
2022-08-29T00:19:59.403Z,18.79
2022-08-29T00:21:51.846Z,18.84
2022-08-29T00:22:51.734Z,18.77
2022-08-29T00:24:44.079Z,18.80
2022-08-29T00:25:44.064Z,18.80
2022-08-29T00:27:37.508Z,18.79
2022-08-29T00:28:37.399Z,18.79
2022-08-29T00:30:29.733Z,18.80
2022-08-29T00:31:29.790Z,18.73
2022-08-29T00:33:22.154Z,18.82
2022-08-29T00:34:22.035Z,18.79
2022-08-29T00:36:15.398Z,18.77
2022-08-29T00:37:15.380Z,18.76
2022-08-29T00:39:09.353Z,18.82
2022-08-29T00:40:07.888Z,18.82
2022-08-29T00:42:00.175Z,18.80
2022-08-29T00:43:00.163Z,18.80
2022-08-29T00:44:52.650Z,18.86
2022-08-29T00:45:52.619Z,18.83
2022-08-29T00:47:44.912Z,18.80
2022-08-29T00:48:44.895Z,18.84
2022-08-29T00:50:38.351Z,18.83
2022-08-29T00:51:38.230Z,18.83
2022-08-29T00:53:30.563Z,18.90
2022-08-29T00:54:30.548Z,18.82
2022-08-29T00:56:24.009Z,18.82
2022-08-29T00:57:23.885Z,18.84
2022-08-29T00:59:17.222Z,18.80
2022-08-29T01:00:17.207Z,18.79
2022-08-29T01:02:10.722Z,18.83
2022-08-29T01:03:10.541Z,18.82
2022-08-29T01:05:03.894Z,18.82
2022-08-29T01:06:03.875Z,18.84
2022-08-29T01:07:56.320Z,18.84
2022-08-29T01:08:57.212Z,18.83
2022-08-29T01:10:48.536Z,18.84
2022-08-29T01:11:48.519Z,18.82
2022-08-29T01:13:40.495Z,18.87
2022-08-29T01:14:40.369Z,18.83
2022-08-29T01:16:32.776Z,18.83
2022-08-29T01:17:32.695Z,18.82
2022-08-29T01:19:27.817Z,18.80
2022-08-29T01:20:26.031Z,18.84
2022-08-29T01:22:18.364Z,18.80
2022-08-29T01:23:18.350Z,18.84
2022-08-29T01:25:10.750Z,18.84
2022-08-29T01:26:10.668Z,18.94
2022-08-29T01:28:03.011Z,18.83
2022-08-29T01:29:02.989Z,18.80
2022-08-29T01:30:56.408Z,18.90
2022-08-29T01:31:57.948Z,18.86
2022-08-29T01:33:48.659Z,18.91
2022-08-29T01:34:48.643Z,18.87
2022-08-29T01:36:41.036Z,18.95
2022-08-29T01:37:40.962Z,18.95
2022-08-29T01:39:33.295Z,18.94
2022-08-29T01:40:33.363Z,18.92
2022-08-29T01:42:25.725Z,18.91
2022-08-29T01:43:25.609Z,18.94
2022-08-29T01:45:18.965Z,18.92
2022-08-29T01:46:18.946Z,18.91
2022-08-29T01:48:11.351Z,18.98
2022-08-29T01:49:11.275Z,18.91
2022-08-29T01:51:03.740Z,18.91
2022-08-29T01:52:03.726Z,18.95
2022-08-29T01:53:57.177Z,18.92
2022-08-29T01:54:57.063Z,18.95
2022-08-29T01:56:49.408Z,18.91
2022-08-29T01:57:49.263Z,18.91
2022-08-29T01:59:41.690Z,18.95
2022-08-29T02:00:41.657Z,18.98
2022-08-29T02:02:35.132Z,18.98
2022-08-29T02:03:35.044Z,18.98
2022-08-29T02:05:28.534Z,18.95
2022-08-29T02:06:28.363Z,18.90
2022-08-29T02:08:21.696Z,18.95
2022-08-29T02:09:21.681Z,19.01
2022-08-29T02:11:15.123Z,18.97
2022-08-29T02:12:15.003Z,18.97
2022-08-29T02:14:12.992Z,19.01
2022-08-29T02:15:08.337Z,18.94
2022-08-29T02:17:01.665Z,19.08
2022-08-29T02:18:01.570Z,19.06
2022-08-29T02:19:53.880Z,19.01
2022-08-29T02:20:53.865Z,19.01
2022-08-29T02:22:48.320Z,19.01
2022-08-29T02:23:48.202Z,19.06
2022-08-29T02:25:40.537Z,19.14
2022-08-29T02:26:40.522Z,19.08
2022-08-29T02:28:33.955Z,19.08
2022-08-29T02:29:37.162Z,19.06
2022-08-29T02:31:27.266Z,19.06
2022-08-29T02:32:27.183Z,19.01
2022-08-29T02:34:20.616Z,19.01
2022-08-29T02:35:20.510Z,18.99
2022-08-29T02:37:13.840Z,19.01
2022-08-29T02:38:13.989Z,19.02
2022-08-29T02:40:08.319Z,19.08
2022-08-29T02:41:12.409Z,19.05
2022-08-29T02:43:00.499Z,18.98
2022-08-29T02:44:00.482Z,19.05
2022-08-29T02:45:53.885Z,19.06
2022-08-29T02:46:53.860Z,18.99
2022-08-29T02:48:49.185Z,19.06
2022-08-29T02:49:45.795Z,19.05
2022-08-29T02:51:38.592Z,19.06
2022-08-29T02:52:38.477Z,18.99
2022-08-29T02:54:30.811Z,18.95
2022-08-29T02:55:30.799Z,18.99
2022-08-29T02:57:24.230Z,19.06
2022-08-29T02:58:24.119Z,19.01
2022-08-29T03:00:16.454Z,18.95
2022-08-29T03:01:16.497Z,19.05
2022-08-29T03:03:08.962Z,19.01
2022-08-29T03:04:08.760Z,19.02
2022-08-29T03:06:01.091Z,19.05
2022-08-29T03:07:01.079Z,19.05
2022-08-29T03:08:54.542Z,19.08
2022-08-29T03:09:54.398Z,19.05
2022-08-29T03:11:46.738Z,19.10
2022-08-29T03:12:46.723Z,19.13
2022-08-29T03:14:41.268Z,19.08
2022-08-29T03:15:41.069Z,19.17
2022-08-29T03:17:33.410Z,19.14
2022-08-29T03:18:33.391Z,19.14
2022-08-29T03:20:26.853Z,19.14
2022-08-29T03:21:26.732Z,19.14
2022-08-29T03:23:21.082Z,19.13
2022-08-29T03:24:26.186Z,19.11
2022-08-29T03:26:14.530Z,19.14
2022-08-29T03:27:14.401Z,19.08
2022-08-29T03:29:06.734Z,19.11
2022-08-29T03:30:06.719Z,19.08
2022-08-29T03:32:00.177Z,19.05
2022-08-29T03:33:00.066Z,19.14
2022-08-29T03:34:53.418Z,19.08
2022-08-29T03:35:53.402Z,19.08
2022-08-29T03:37:45.799Z,19.14
2022-08-29T03:38:45.730Z,19.08
2022-08-29T03:40:38.106Z,19.11
2022-08-29T03:41:38.055Z,19.11
2022-08-29T03:43:30.487Z,19.14
2022-08-29T03:44:30.386Z,19.13
2022-08-29T03:46:23.752Z,19.17
2022-08-29T03:47:23.713Z,19.10
2022-08-29T03:49:16.152Z,19.20
2022-08-29T03:50:16.032Z,19.21
2022-08-29T03:52:08.370Z,19.10
2022-08-29T03:53:08.355Z,19.13
2022-08-29T03:55:02.797Z,19.18
2022-08-29T03:56:02.681Z,19.14
2022-08-29T03:57:55.020Z,19.23
2022-08-29T03:58:55.001Z,19.23
2022-08-29T04:00:47.440Z,19.18
2022-08-29T04:01:47.444Z,19.13
2022-08-29T04:03:40.682Z,19.17
2022-08-29T04:04:40.666Z,19.15
2022-08-29T04:06:33.065Z,19.11
2022-08-29T04:07:32.988Z,19.20
2022-08-29T04:09:25.322Z,19.17
2022-08-29T04:10:25.308Z,19.20
2022-08-29T04:12:18.106Z,19.18
2022-08-29T04:13:17.999Z,19.20
2022-08-29T04:15:10.340Z,19.23
2022-08-29T04:16:10.372Z,19.13
2022-08-29T04:18:02.761Z,19.23
2022-08-29T04:19:02.649Z,19.25
2022-08-29T04:20:54.987Z,19.28
2022-08-29T04:21:54.975Z,19.25
2022-08-29T04:23:48.001Z,19.25
2022-08-29T04:24:47.294Z,19.33
2022-08-29T04:26:39.674Z,19.33
2022-08-29T04:27:39.659Z,19.29
2022-08-29T04:29:32.098Z,19.33
2022-08-29T04:30:31.981Z,19.35
2022-08-29T04:32:24.317Z,19.38
2022-08-29T04:33:24.301Z,19.38
2022-08-29T04:35:16.849Z,19.40
2022-08-29T04:36:16.746Z,19.36
2022-08-29T04:38:09.088Z,19.46
2022-08-29T04:39:09.072Z,19.43
2022-08-29T04:41:01.539Z,19.50
2022-08-29T04:42:01.427Z,19.51
2022-08-29T04:43:53.767Z,19.61
2022-08-29T04:44:53.751Z,19.61
2022-08-29T04:46:46.242Z,19.57
2022-08-29T04:47:46.069Z,19.58
2022-08-29T04:49:38.409Z,19.68
2022-08-29T04:50:38.399Z,19.63
2022-08-29T04:52:31.829Z,19.70
2022-08-29T04:53:31.713Z,19.69
2022-08-29T04:55:25.595Z,19.72
2022-08-29T04:56:25.107Z,19.72
2022-08-29T04:58:18.517Z,19.69
2022-08-29T04:59:18.436Z,19.75
2022-08-29T05:01:11.843Z,19.72
2022-08-29T05:02:11.752Z,19.75
2022-08-29T05:04:04.193Z,19.88
2022-08-29T05:05:04.082Z,19.86
2022-08-29T05:06:56.450Z,19.86
2022-08-29T05:07:56.438Z,19.78
2022-08-29T05:09:51.955Z,19.86
2022-08-29T05:10:48.758Z,19.90
2022-08-29T05:12:41.114Z,19.88
2022-08-29T05:13:42.537Z,19.88
2022-08-29T05:15:33.512Z,19.91
2022-08-29T05:16:33.423Z,19.95
2022-08-29T05:18:25.755Z,19.97
2022-08-29T05:19:25.737Z,19.93
2022-08-29T05:21:18.176Z,19.91
2022-08-29T05:22:18.059Z,19.90
2022-08-29T05:24:10.405Z,20.02
2022-08-29T05:25:14.431Z,19.98
2022-08-29T05:27:03.820Z,20.02
2022-08-29T05:28:03.711Z,20.03
2022-08-29T05:29:56.142Z,20.08
2022-08-29T05:30:56.100Z,20.03
2022-08-29T05:32:48.489Z,20.08
2022-08-29T05:33:48.367Z,20.12
2022-08-29T05:35:40.699Z,20.00
2022-08-29T05:36:40.686Z,20.09
2022-08-29T05:38:33.085Z,20.12
2022-08-29T05:39:33.005Z,20.12
2022-08-29T05:41:25.360Z,20.13
2022-08-29T05:42:25.343Z,20.20
2022-08-29T05:44:17.792Z,20.20
2022-08-29T05:45:17.675Z,20.21
2022-08-29T05:47:10.025Z,20.16
2022-08-29T05:48:10.105Z,20.16
2022-08-29T05:50:02.438Z,20.13
2022-08-29T05:51:02.325Z,20.16
2022-08-29T05:52:55.419Z,20.27
2022-08-29T05:53:54.643Z,20.21
2022-08-29T05:55:47.095Z,20.25
2022-08-29T05:56:46.995Z,20.25
2022-08-29T05:58:39.332Z,20.33
2022-08-29T05:59:39.315Z,20.31
2022-08-29T06:01:32.726Z,20.30
2022-08-29T06:02:31.746Z,20.39
2022-08-29T06:04:23.977Z,20.38
2022-08-29T06:05:23.966Z,20.34
2022-08-29T06:07:16.437Z,20.39
2022-08-29T06:08:16.478Z,20.30
2022-08-29T06:10:08.626Z,20.35
2022-08-29T06:11:08.615Z,20.33
2022-08-29T06:13:01.710Z,20.30
2022-08-29T06:14:00.937Z,20.31
2022-08-29T06:15:53.412Z,20.49
2022-08-29T06:16:53.257Z,20.34
2022-08-29T06:18:45.692Z,20.41
2022-08-29T06:19:45.577Z,20.50
2022-08-29T06:21:37.923Z,20.42
2022-08-29T06:22:40.255Z,20.50
2022-08-29T06:24:30.404Z,20.42
2022-08-29T06:25:39.536Z,20.50
2022-08-29T06:27:22.596Z,20.46
2022-08-29T06:28:24.088Z,20.50
2022-08-29T06:30:14.985Z,20.47
2022-08-29T06:31:14.991Z,20.56
2022-08-29T06:33:07.253Z,20.49
2022-08-29T06:34:07.232Z,20.50
2022-08-29T06:35:59.680Z,20.49
2022-08-29T06:36:59.555Z,20.56
2022-08-29T06:38:51.907Z,20.61
2022-08-29T06:39:51.889Z,20.53
2022-08-29T06:41:43.850Z,20.64
2022-08-29T06:42:43.738Z,20.58
2022-08-29T06:44:36.077Z,20.62
2022-08-29T06:45:36.061Z,20.62
2022-08-29T06:47:29.163Z,20.64
2022-08-29T06:48:29.711Z,20.65
2022-08-29T06:50:20.751Z,20.68
2022-08-29T06:51:20.727Z,20.66
2022-08-29T06:53:26.921Z,20.64
2022-08-29T06:54:13.052Z,20.64
2022-08-29T06:56:05.454Z,20.61
2022-08-29T06:57:05.382Z,20.56
2022-08-29T06:58:57.821Z,20.59
2022-08-29T06:59:57.721Z,20.66
2022-08-29T07:01:50.167Z,20.65
2022-08-29T07:02:51.714Z,20.65
2022-08-29T07:04:42.487Z,20.61
2022-08-29T07:05:42.358Z,20.66
2022-08-29T07:07:35.945Z,20.66
2022-08-29T07:08:34.687Z,20.71
2022-08-29T07:10:27.138Z,20.66
2022-08-29T07:11:27.022Z,20.68
2022-08-29T07:13:19.366Z,20.76
2022-08-29T07:14:19.346Z,20.71
2022-08-29T07:16:11.832Z,20.74
2022-08-29T07:17:11.669Z,20.76
2022-08-29T07:19:04.010Z,20.74
2022-08-29T07:20:03.994Z,20.76
2022-08-29T07:21:58.288Z,20.79
2022-08-29T07:22:56.325Z,20.72
2022-08-29T07:24:48.656Z,20.74
2022-08-29T07:25:48.644Z,20.74
2022-08-29T07:27:41.088Z,20.81
2022-08-29T07:28:45.662Z,20.77
2022-08-29T07:30:33.375Z,20.77
2022-08-29T07:31:33.318Z,20.83
2022-08-29T07:33:25.749Z,20.84
2022-08-29T07:34:25.632Z,20.81
2022-08-29T07:36:17.973Z,20.83
2022-08-29T07:37:17.959Z,20.80
2022-08-29T07:39:10.396Z,20.81
2022-08-29T07:40:10.387Z,20.84
2022-08-29T07:42:02.620Z,20.79
2022-08-29T07:43:02.601Z,20.84
2022-08-29T07:44:55.038Z,20.81
2022-08-29T07:45:54.985Z,20.81
2022-08-29T07:47:47.352Z,20.81
2022-08-29T07:48:47.253Z,20.84
2022-08-29T07:50:39.672Z,20.83
2022-08-29T07:51:40.509Z,20.84
2022-08-29T07:53:31.921Z,20.77
2022-08-29T07:54:31.908Z,20.81
2022-08-29T07:56:24.543Z,20.83
2022-08-29T07:57:24.231Z,20.84
2022-08-29T07:59:16.568Z,20.83
2022-08-29T08:00:16.561Z,20.77
2022-08-29T08:02:09.036Z,20.81
2022-08-29T08:03:08.875Z,20.90
2022-08-29T08:05:01.210Z,20.83
2022-08-29T08:06:06.922Z,20.95
2022-08-29T08:07:55.606Z,20.86
2022-08-29T08:08:53.529Z,20.81
2022-08-29T08:10:50.082Z,20.91
2022-08-29T08:11:45.855Z,20.89
2022-08-29T08:13:38.282Z,20.89
2022-08-29T08:14:38.172Z,20.89
2022-08-29T08:16:30.560Z,20.96
2022-08-29T08:17:30.497Z,20.83
2022-08-29T08:19:22.939Z,20.90
2022-08-29T08:20:22.818Z,20.91
2022-08-29T08:22:15.173Z,20.86
2022-08-29T08:23:15.168Z,20.91
2022-08-29T08:25:07.607Z,20.95
2022-08-29T08:26:07.491Z,20.95
2022-08-29T08:27:59.824Z,20.96
2022-08-29T08:28:59.808Z,20.91
2022-08-29T08:30:52.275Z,20.98
2022-08-29T08:31:52.136Z,20.95
2022-08-29T08:33:44.497Z,20.98
2022-08-29T08:34:44.466Z,21.01
2022-08-29T08:36:40.769Z,20.95
2022-08-29T08:37:36.785Z,20.99
2022-08-29T08:39:29.137Z,20.99
2022-08-29T08:40:29.155Z,20.99
2022-08-29T08:42:24.806Z,20.96
2022-08-29T08:43:26.978Z,20.98
2022-08-29T08:45:13.797Z,20.93
2022-08-29T08:46:13.966Z,21.01
2022-08-29T08:48:06.231Z,21.01
2022-08-29T08:49:06.104Z,20.96
2022-08-29T08:50:58.448Z,21.02
2022-08-29T08:51:58.432Z,21.01
2022-08-29T08:53:50.873Z,21.02
2022-08-29T08:54:50.766Z,20.99
2022-08-29T08:56:43.136Z,20.96
2022-08-29T08:57:43.086Z,20.93
2022-08-29T08:59:35.487Z,20.91
2022-08-29T09:00:35.408Z,20.91
2022-08-29T09:02:27.800Z,20.91
2022-08-29T09:03:27.731Z,20.91
2022-08-29T09:05:20.171Z,20.83
2022-08-29T09:06:20.050Z,20.89
2022-08-29T09:08:12.400Z,20.93
2022-08-29T09:09:14.442Z,20.93
2022-08-29T09:11:04.831Z,20.89
2022-08-29T09:12:04.707Z,20.90
2022-08-29T09:13:57.046Z,20.86
2022-08-29T09:14:57.027Z,20.83
2022-08-29T09:16:49.534Z,20.79
2022-08-29T09:17:49.361Z,20.77
2022-08-29T09:19:41.702Z,20.86
2022-08-29T09:20:41.689Z,20.83
2022-08-29T09:22:34.146Z,20.86
2022-08-29T09:23:34.024Z,20.84
2022-08-29T09:25:28.288Z,20.76
2022-08-29T09:26:26.344Z,20.74
2022-08-29T09:28:18.787Z,20.76
2022-08-29T09:29:18.674Z,20.76
2022-08-29T09:31:12.012Z,20.66
2022-08-29T09:32:12.067Z,20.62
2022-08-29T09:34:03.946Z,20.65
2022-08-29T09:35:11.057Z,20.64
2022-08-29T09:36:56.176Z,20.65
2022-08-29T09:37:56.161Z,20.64
2022-08-29T09:39:51.807Z,20.59
2022-08-29T09:40:48.560Z,20.66
2022-08-29T09:42:40.820Z,20.68
2022-08-29T09:43:40.805Z,20.54
2022-08-29T09:45:33.308Z,20.66
2022-08-29T09:46:33.135Z,20.64
2022-08-29T09:48:25.472Z,20.62
2022-08-29T09:49:25.456Z,20.62
2022-08-29T09:51:17.896Z,20.61
2022-08-29T09:52:17.784Z,20.59
2022-08-29T09:54:10.139Z,20.64
2022-08-29T09:55:10.122Z,20.65
2022-08-29T09:57:02.582Z,20.65
2022-08-29T09:58:02.457Z,20.53
2022-08-29T09:59:54.796Z,20.58
2022-08-29T10:00:54.799Z,20.58
2022-08-29T10:02:47.248Z,20.59
2022-08-29T10:03:47.097Z,20.50
2022-08-29T10:05:39.435Z,20.43
2022-08-29T10:06:44.309Z,20.46
2022-08-29T10:08:31.817Z,20.51
2022-08-29T10:09:31.740Z,20.50
2022-08-29T10:11:24.082Z,20.47
2022-08-29T10:12:24.067Z,20.50
2022-08-29T10:14:16.542Z,20.47
2022-08-29T10:15:33.402Z,20.50
2022-08-29T10:17:08.744Z,20.50
2022-08-29T10:18:08.728Z,20.43
2022-08-29T10:20:01.169Z,20.46
2022-08-29T10:21:01.049Z,20.47
2022-08-29T10:22:53.390Z,20.41
2022-08-29T10:23:53.378Z,20.41
2022-08-29T10:25:45.824Z,20.34
2022-08-29T10:26:45.700Z,20.31
2022-08-29T10:28:38.034Z,20.39
2022-08-29T10:29:38.019Z,20.39
2022-08-29T10:31:30.511Z,20.35
2022-08-29T10:32:30.346Z,20.42
2022-08-29T10:34:22.695Z,20.30
2022-08-29T10:35:22.680Z,20.34
2022-08-29T10:37:15.120Z,20.33
2022-08-29T10:38:15.002Z,20.28
2022-08-29T10:40:07.435Z,20.24
2022-08-29T10:41:07.327Z,20.35
2022-08-29T10:42:59.757Z,20.33
2022-08-29T10:43:59.646Z,20.31
2022-08-29T10:45:52.005Z,20.31
2022-08-29T10:46:51.967Z,20.25
2022-08-29T10:48:44.401Z,20.31
2022-08-29T10:49:44.977Z,20.25
2022-08-29T10:51:37.625Z,20.27
2022-08-29T10:52:37.611Z,20.25
2022-08-29T10:54:30.069Z,20.20
2022-08-29T10:55:29.949Z,20.21
2022-08-29T10:57:22.292Z,20.16
2022-08-29T10:58:22.276Z,20.25
2022-08-29T11:00:14.726Z,20.23
2022-08-29T11:01:14.667Z,20.16
2022-08-29T11:03:07.062Z,20.21
2022-08-29T11:04:07.029Z,20.16
2022-08-29T11:05:59.382Z,20.20
2022-08-29T11:06:59.269Z,20.12
2022-08-29T11:08:51.129Z,20.18
2022-08-29T11:09:51.114Z,20.18
2022-08-29T11:11:43.518Z,20.20
2022-08-29T11:12:43.440Z,20.25
2022-08-29T11:14:35.775Z,20.18
2022-08-29T11:15:35.762Z,20.16
2022-08-29T11:17:28.207Z,20.09
2022-08-29T11:18:28.090Z,20.13
2022-08-29T11:20:20.430Z,20.09
2022-08-29T11:21:20.419Z,20.08
2022-08-29T11:23:12.876Z,20.12
2022-08-29T11:24:12.743Z,20.12
2022-08-29T11:26:05.085Z,20.09
2022-08-29T11:27:05.069Z,20.05
2022-08-29T11:28:57.504Z,20.10
2022-08-29T11:29:57.390Z,20.12
2022-08-29T11:31:49.778Z,20.03
2022-08-29T11:32:49.721Z,20.02
2022-08-29T11:34:42.159Z,20.10
2022-08-29T11:35:42.040Z,20.05
2022-08-29T11:37:34.383Z,20.12
2022-08-29T11:38:34.366Z,20.08
2022-08-29T11:41:27.812Z,20.09
2022-08-29T11:43:19.024Z,20.08
2022-08-29T11:44:19.010Z,20.02
2022-08-29T11:46:11.459Z,20.05
2022-08-29T11:47:11.391Z,19.91
2022-08-29T11:49:03.669Z,20.05
2022-08-29T11:50:03.680Z,19.90
2022-08-29T11:51:56.089Z,20.00
2022-08-29T11:52:55.974Z,19.91
2022-08-29T11:54:48.311Z,19.93
2022-08-29T11:55:48.296Z,20.02
2022-08-29T11:57:40.749Z,19.94
2022-08-29T11:58:40.625Z,19.93
2022-08-29T12:00:32.968Z,19.94
2022-08-29T12:01:32.955Z,19.88
2022-08-29T12:03:28.865Z,19.91
2022-08-29T12:04:25.329Z,19.88
2022-08-29T12:06:17.647Z,19.95
2022-08-29T12:07:17.631Z,19.94
2022-08-29T12:09:13.448Z,19.94
2022-08-29T12:10:09.953Z,19.91
2022-08-29T12:12:02.286Z,19.88
2022-08-29T12:13:02.281Z,19.93
2022-08-29T12:14:54.671Z,19.88
2022-08-29T12:15:54.672Z,19.94
2022-08-29T12:18:03.622Z,19.98
2022-08-29T12:18:46.915Z,19.88
2022-08-29T12:20:39.362Z,19.93
2022-08-29T12:21:39.243Z,19.91
2022-08-29T12:23:31.615Z,19.95
2022-08-29T12:24:31.562Z,19.94
2022-08-29T12:26:24.010Z,19.86
2022-08-29T12:27:23.883Z,19.83
2022-08-29T12:29:17.220Z,19.93
2022-08-29T12:30:17.206Z,19.87
2022-08-29T12:32:23.103Z,19.73
2022-08-29T12:33:09.529Z,19.88
2022-08-29T12:35:01.863Z,19.79
2022-08-29T12:36:01.846Z,19.83
2022-08-29T12:37:54.288Z,19.88
2022-08-29T12:38:54.171Z,19.79
2022-08-29T12:40:46.573Z,19.79
2022-08-29T12:41:46.489Z,19.83
2022-08-29T12:43:38.934Z,19.79
2022-08-29T12:44:38.814Z,19.78
2022-08-29T12:46:31.174Z,19.86
2022-08-29T12:47:31.134Z,19.75
2022-08-29T12:49:23.581Z,19.75
2022-08-29T12:50:23.459Z,19.83
2022-08-29T12:52:15.797Z,19.83
2022-08-29T12:53:15.782Z,19.75
2022-08-29T12:55:08.181Z,19.75
2022-08-29T12:56:08.099Z,19.78
2022-08-29T12:58:00.441Z,19.79
2022-08-29T12:59:00.432Z,19.79
2022-08-29T13:00:52.833Z,19.79
2022-08-29T13:01:56.111Z,19.75
2022-08-29T13:03:45.086Z,19.73
2022-08-29T13:04:45.070Z,19.76
2022-08-29T13:06:37.516Z,19.70
2022-08-29T13:07:37.392Z,19.72
2022-08-29T13:09:29.728Z,19.70
2022-08-29T13:10:29.714Z,19.73
2022-08-29T13:12:22.192Z,19.69
2022-08-29T13:13:22.038Z,19.72
2022-08-29T13:15:14.388Z,19.72
2022-08-29T13:16:14.412Z,19.73
2022-08-29T13:18:06.809Z,19.70
2022-08-29T13:19:11.212Z,19.63
2022-08-29T13:20:59.049Z,19.69
2022-08-29T13:21:59.035Z,19.73
2022-08-29T13:23:51.506Z,19.72
2022-08-29T13:24:51.355Z,19.70
2022-08-29T13:27:03.356Z,19.73
2022-08-29T13:27:43.676Z,19.70
2022-08-29T13:29:36.092Z,19.68
2022-08-29T13:30:36.003Z,19.75
2022-08-29T13:32:28.347Z,19.70
2022-08-29T13:33:34.927Z,19.66
2022-08-29T13:35:20.733Z,19.72
2022-08-29T13:36:20.651Z,19.68
2022-08-29T13:38:12.984Z,19.65
2022-08-29T13:39:12.971Z,19.63
2022-08-29T13:41:05.399Z,19.68
2022-08-29T13:42:05.298Z,19.68
2022-08-29T13:43:57.627Z,19.68
2022-08-29T13:44:57.612Z,19.60
2022-08-29T13:46:50.089Z,19.68
2022-08-29T13:47:49.932Z,19.73
2022-08-29T13:49:42.272Z,19.61
2022-08-29T13:50:42.343Z,19.63
2022-08-29T13:52:34.702Z,19.75
2022-08-29T13:53:34.581Z,19.72
2022-08-29T13:55:26.925Z,19.68
2022-08-29T13:56:31.527Z,19.72
2022-08-29T13:58:19.355Z,19.60
2022-08-29T13:59:19.224Z,19.65
2022-08-29T14:02:12.707Z,19.66
2022-08-29T14:04:27.341Z,19.66
2022-08-29T14:05:04.885Z,19.68
2022-08-29T14:06:57.230Z,19.63
2022-08-29T14:07:57.214Z,19.61
2022-08-29T14:09:49.650Z,19.68
2022-08-29T14:10:49.545Z,19.61
2022-08-29T14:12:41.882Z,19.66
2022-08-29T14:13:41.867Z,19.57
2022-08-29T14:15:34.367Z,19.66
2022-08-29T14:16:34.188Z,19.57
2022-08-29T14:18:26.524Z,19.61
2022-08-29T14:19:26.507Z,19.54
2022-08-29T14:21:18.919Z,19.54
2022-08-29T14:22:18.841Z,19.51
2022-08-29T14:24:11.176Z,19.54
2022-08-29T14:25:11.163Z,19.58
2022-08-29T14:27:03.596Z,19.50
2022-08-29T14:28:03.485Z,19.53
2022-08-29T14:29:55.825Z,19.54
2022-08-29T14:30:55.902Z,19.55
2022-08-29T14:32:48.247Z,19.57
2022-08-29T14:33:51.515Z,19.54
2022-08-29T14:35:43.217Z,19.55
2022-08-29T14:36:43.540Z,19.55
2022-08-29T14:38:33.882Z,19.57
2022-08-29T14:39:33.769Z,19.55
2022-08-29T14:41:26.104Z,19.60
2022-08-29T14:42:26.089Z,19.51
2022-08-29T14:44:20.165Z,19.55
2022-08-29T14:45:18.411Z,19.61
2022-08-29T14:47:10.766Z,19.55
2022-08-29T14:48:10.753Z,19.57
2022-08-29T14:50:03.197Z,19.60
2022-08-29T14:51:03.079Z,19.55
2022-08-29T14:52:55.419Z,19.57
2022-08-29T14:53:55.400Z,19.50
2022-08-29T14:55:47.805Z,19.57
2022-08-29T14:56:49.606Z,19.61
2022-08-29T14:58:40.062Z,19.54
2022-08-29T14:59:40.045Z,19.55
2022-08-29T15:01:32.488Z,19.55
2022-08-29T15:02:32.410Z,19.43
2022-08-29T15:04:36.399Z,19.53
2022-08-29T15:05:24.690Z,19.43
2022-08-29T15:07:17.180Z,19.47
2022-08-29T15:08:17.149Z,19.53
2022-08-29T15:10:09.386Z,19.43
2022-08-29T15:11:09.368Z,19.50
2022-08-29T15:13:01.814Z,19.50
2022-08-29T15:14:04.518Z,19.55
2022-08-29T15:15:54.082Z,19.50
2022-08-29T15:16:54.013Z,19.46
2022-08-29T15:19:31.513Z,19.46
2022-08-29T15:21:38.671Z,19.46
2022-08-29T15:22:38.656Z,19.48
2022-08-29T15:24:31.066Z,19.33
2022-08-29T15:25:30.988Z,19.42
2022-08-29T15:27:27.416Z,19.46
2022-08-29T15:28:24.320Z,19.40
2022-08-29T15:30:16.752Z,19.40
2022-08-29T15:31:16.701Z,19.40
2022-08-29T15:33:08.983Z,19.46
2022-08-29T15:34:08.970Z,19.42
2022-08-29T15:36:01.408Z,19.39
2022-08-29T15:37:01.306Z,19.39
2022-08-29T15:38:53.649Z,19.40
2022-08-29T15:39:54.677Z,19.40
2022-08-29T15:41:46.071Z,19.42
2022-08-29T15:42:45.953Z,19.42
2022-08-29T15:44:38.288Z,19.42
2022-08-29T15:45:38.276Z,19.40
2022-08-29T15:47:30.731Z,19.46
2022-08-29T15:48:30.598Z,19.40
2022-08-29T15:50:22.932Z,19.42
2022-08-29T15:51:22.917Z,19.48
2022-08-29T15:53:15.351Z,19.40
2022-08-29T15:54:15.235Z,19.40
2022-08-29T15:56:07.577Z,19.35
2022-08-29T15:57:07.563Z,19.42
2022-08-29T15:59:00.002Z,19.43
2022-08-29T15:59:59.886Z,19.40
2022-08-29T16:01:52.290Z,19.43
2022-08-29T16:02:52.237Z,19.40
2022-08-29T16:04:44.657Z,19.39
2022-08-29T16:05:44.529Z,19.35
2022-08-29T16:07:36.868Z,19.38
2022-08-29T16:08:36.852Z,19.33
2022-08-29T16:10:28.854Z,19.36
2022-08-29T16:11:28.694Z,19.39
2022-08-29T16:13:21.032Z,19.38
2022-08-29T16:16:13.504Z,19.38
2022-08-29T16:17:13.365Z,19.38
2022-08-29T16:19:05.688Z,19.42
2022-08-29T16:20:05.656Z,19.33
2022-08-29T16:21:58.102Z,19.35
2022-08-29T16:22:57.977Z,19.36
2022-08-29T16:24:50.334Z,19.36
2022-08-29T16:25:50.318Z,19.35
2022-08-29T16:27:42.766Z,19.39
2022-08-29T16:28:42.638Z,19.38
2022-08-29T16:30:35.073Z,19.33
2022-08-29T16:31:34.996Z,19.35
2022-08-29T16:33:27.371Z,19.38
2022-08-29T16:34:27.290Z,19.32
2022-08-29T16:36:19.627Z,19.35
2022-08-29T16:37:19.611Z,19.33
2022-08-29T16:39:12.012Z,19.35
2022-08-29T16:40:11.965Z,19.32
2022-08-29T16:42:04.269Z,19.35
2022-08-29T16:43:04.259Z,19.29
2022-08-29T16:44:56.703Z,19.31
2022-08-29T16:45:56.619Z,19.25
2022-08-29T16:47:48.935Z,19.29
2022-08-29T16:48:48.918Z,19.33
2022-08-29T16:50:41.360Z,19.29
2022-08-29T16:51:41.248Z,19.28
2022-08-29T16:53:38.100Z,19.31
2022-08-29T16:54:33.580Z,19.20
2022-08-29T16:56:27.022Z,19.33
2022-08-29T16:57:26.908Z,19.25
2022-08-29T16:59:19.247Z,19.32
2022-08-29T17:00:19.234Z,19.32
2022-08-29T17:02:11.665Z,19.31
2022-08-29T17:03:11.554Z,19.23
2022-08-29T17:05:03.894Z,19.25
2022-08-29T17:06:03.879Z,19.28
2022-08-29T17:07:56.326Z,19.23
2022-08-29T17:08:56.201Z,19.21
2022-08-29T17:10:48.534Z,19.17
2022-08-29T17:11:48.521Z,19.21
2022-08-29T17:13:40.915Z,19.20
2022-08-29T17:14:40.840Z,19.20
2022-08-29T17:16:33.371Z,19.21
2022-08-29T17:17:33.161Z,19.17
2022-08-29T17:19:25.630Z,19.23
2022-08-29T17:20:25.508Z,19.20
2022-08-29T17:22:17.857Z,19.21
2022-08-29T17:23:17.842Z,19.14
2022-08-29T17:25:10.288Z,19.23
2022-08-29T17:26:10.164Z,19.20
2022-08-29T17:28:17.116Z,19.25
2022-08-29T17:29:02.483Z,19.23
2022-08-29T17:30:54.970Z,19.21
2022-08-29T17:31:54.806Z,19.21
2022-08-29T17:33:47.140Z,19.18
2022-08-29T17:34:47.126Z,19.15
2022-08-29T17:36:39.531Z,19.24
2022-08-29T17:37:39.446Z,19.21
2022-08-29T17:39:31.793Z,19.21
2022-08-29T17:40:31.854Z,19.11
2022-08-29T17:42:24.216Z,19.20
2022-08-29T17:43:24.100Z,19.20
2022-08-29T17:45:16.435Z,19.18
2022-08-29T17:46:16.501Z,19.18
2022-08-29T17:48:08.905Z,19.18
2022-08-29T17:49:08.743Z,19.17
2022-08-29T17:51:01.079Z,19.24
2022-08-29T17:52:01.063Z,19.21
2022-08-29T17:53:53.678Z,19.13
2022-08-29T17:54:53.382Z,19.13
2022-08-29T17:56:45.717Z,19.11
2022-08-29T17:57:45.701Z,19.18
2022-08-29T17:59:38.152Z,19.15
2022-08-29T18:00:38.029Z,19.15
2022-08-29T18:02:30.385Z,19.15
2022-08-29T18:03:30.359Z,19.15
2022-08-29T18:05:22.834Z,19.14
2022-08-29T18:06:22.681Z,19.17
2022-08-29T18:08:15.184Z,19.15
2022-08-29T18:09:15.002Z,19.11
2022-08-29T18:11:07.436Z,19.15
2022-08-29T18:12:07.327Z,19.20
2022-08-29T18:13:59.664Z,19.17
2022-08-29T18:14:59.648Z,19.11
2022-08-29T18:16:52.207Z,19.15
2022-08-29T18:17:51.979Z,19.15
2022-08-29T18:19:44.316Z,19.17
2022-08-29T18:20:44.301Z,19.23
2022-08-29T18:22:36.703Z,19.18
2022-08-29T18:23:36.620Z,19.24
2022-08-29T18:25:28.964Z,19.14
2022-08-29T18:26:28.951Z,19.18
2022-08-29T18:28:21.412Z,19.21
2022-08-29T18:29:21.287Z,19.13
2022-08-29T18:31:18.344Z,19.13
2022-08-29T18:32:13.607Z,19.08
2022-08-29T18:34:06.011Z,19.13
2022-08-29T18:35:05.933Z,19.15
2022-08-29T18:36:58.267Z,19.11